createdAt,value
2023-04-20T00:02:24.090Z,2.27
2023-04-20T00:04:54.104Z,2.47
2023-04-20T00:07:24.806Z,2.90
2023-04-20T00:09:53.145Z,2.47
2023-04-20T00:12:21.478Z,3.00
2023-04-20T00:14:49.958Z,2.40
2023-04-20T00:17:18.366Z,2.37
2023-04-20T00:19:47.285Z,3.23
2023-04-20T00:22:17.013Z,2.20
2023-04-20T00:24:45.339Z,2.70
2023-04-20T00:27:13.696Z,2.83
2023-04-20T00:29:44.508Z,2.30
2023-04-20T00:32:12.867Z,2.30
2023-04-20T00:34:42.142Z,2.87
2023-04-20T00:37:10.501Z,2.70
2023-04-20T00:39:41.239Z,2.80
2023-04-20T00:42:10.455Z,2.83
2023-04-20T00:44:38.808Z,2.47
2023-04-20T00:47:07.788Z,2.57
2023-04-20T00:49:36.228Z,2.73
2023-04-20T00:52:04.898Z,2.80
2023-04-20T00:54:33.564Z,2.60
2023-04-20T00:57:05.789Z,2.40
2023-04-20T00:59:36.443Z,2.50
2023-04-20T01:02:04.959Z,2.80
2023-04-20T01:04:35.065Z,2.63
2023-04-20T01:07:03.727Z,2.17
2023-04-20T01:09:32.049Z,2.23
2023-04-20T01:12:02.860Z,2.07
2023-04-20T01:14:31.201Z,3.00
2023-04-20T01:16:59.597Z,2.17
2023-04-20T01:19:28.123Z,2.60
2023-04-20T01:21:56.639Z,2.27
2023-04-20T01:24:26.403Z,2.77
2023-04-20T01:26:54.799Z,2.67
2023-04-20T01:29:23.325Z,2.80
2023-04-20T01:31:51.807Z,2.50
2023-04-20T01:34:20.222Z,2.93
2023-04-20T01:36:48.669Z,2.60
2023-04-20T01:39:19.065Z,2.80
2023-04-20T01:41:50.023Z,2.50
2023-04-20T01:44:19.246Z,2.60
2023-04-20T01:46:47.680Z,2.80
2023-04-20T01:49:16.291Z,2.10
2023-04-20T01:51:44.825Z,2.40
2023-04-20T01:54:13.147Z,2.53
2023-04-20T01:56:41.706Z,2.50
2023-04-20T01:59:11.486Z,2.30
2023-04-20T02:01:39.960Z,2.53
2023-04-20T02:04:08.431Z,2.50
2023-04-20T02:06:36.970Z,2.13
2023-04-20T02:09:05.436Z,2.50
2023-04-20T02:11:36.527Z,2.30
2023-04-20T02:14:07.564Z,2.43
2023-04-20T02:16:37.943Z,2.60
2023-04-20T02:19:06.806Z,2.27
2023-04-20T02:21:35.481Z,2.50
2023-04-20T02:24:05.325Z,2.23
2023-04-20T02:26:33.690Z,2.80
2023-04-20T02:29:02.026Z,2.67
2023-04-20T02:31:30.478Z,2.47
2023-04-20T02:34:00.167Z,2.63
2023-04-20T02:36:29.051Z,2.50
2023-04-20T02:38:57.399Z,2.70
2023-04-20T02:41:25.753Z,2.57
2023-04-20T02:43:54.174Z,2.47
2023-04-20T02:46:22.885Z,2.60
2023-04-20T02:48:51.557Z,2.70
2023-04-20T02:51:21.536Z,2.33
2023-04-20T02:53:51.245Z,2.73
2023-04-20T02:56:29.594Z,2.90
2023-04-20T02:59:02.862Z,2.27
2023-04-20T03:01:44.816Z,2.73
2023-04-20T03:04:18.196Z,2.17
2023-04-20T03:07:09.577Z,3.00
2023-04-20T03:09:40.045Z,2.57
2023-04-20T03:12:34.422Z,2.40
2023-04-20T03:15:22.731Z,2.60
2023-04-20T03:18:02.468Z,2.40
2023-04-20T03:20:31.346Z,2.33
2023-04-20T03:23:01.629Z,2.90
2023-04-20T03:25:31.096Z,2.80
2023-04-20T03:28:08.034Z,2.53
2023-04-20T03:30:37.515Z,3.07
2023-04-20T03:33:11.857Z,2.20
2023-04-20T03:35:40.305Z,2.70
2023-04-20T03:38:10.256Z,2.70
2023-04-20T03:40:38.724Z,2.43
2023-04-20T03:43:07.109Z,2.77
2023-04-20T03:45:35.483Z,2.70
2023-04-20T03:48:04.014Z,2.40
2023-04-20T03:50:32.402Z,2.83
2023-04-20T03:53:00.760Z,2.90
2023-04-20T03:55:30.511Z,2.90
2023-04-20T03:58:06.920Z,2.40
2023-04-20T04:00:46.394Z,2.63
2023-04-20T04:03:16.045Z,2.40
2023-04-20T04:05:44.491Z,2.80
2023-04-20T04:08:12.817Z,2.60
2023-04-20T04:10:42.686Z,2.30
2023-04-20T04:13:11.077Z,2.10
2023-04-20T04:15:39.450Z,2.60
2023-04-20T04:18:12.483Z,2.60
2023-04-20T04:20:42.451Z,2.60
2023-04-20T04:23:12.750Z,2.73
2023-04-20T04:25:57.224Z,2.80
2023-04-20T04:28:27.383Z,2.63
2023-04-20T04:31:17.419Z,2.80
2023-04-20T04:33:46.419Z,3.03
2023-04-20T04:36:24.240Z,2.70
2023-04-20T04:38:52.789Z,2.63
2023-04-20T04:41:23.520Z,2.97
2023-04-20T04:43:52.438Z,3.07
2023-04-20T04:46:27.693Z,2.97
2023-04-20T04:49:01.080Z,3.30
2023-04-20T04:51:29.616Z,2.77
2023-04-20T04:53:57.955Z,3.80
2023-04-20T04:56:28.519Z,3.33
2023-04-20T04:58:56.867Z,3.30
2023-04-20T05:01:25.229Z,3.30
2023-04-20T05:03:53.693Z,3.50
2023-04-20T05:06:22.123Z,4.83
2023-04-20T05:08:50.596Z,3.67
2023-04-20T05:11:18.961Z,3.60
2023-04-20T05:13:49.963Z,3.50
2023-04-20T05:16:18.365Z,2.93
2023-04-20T05:18:46.755Z,3.20
2023-04-20T05:21:15.047Z,3.23
2023-04-20T05:23:44.252Z,3.53
2023-04-20T05:26:12.561Z,3.20
2023-04-20T05:28:40.891Z,3.00
2023-04-20T05:31:10.691Z,4.00
2023-04-20T05:33:39.461Z,4.10
2023-04-20T05:36:10.954Z,3.97
2023-04-20T05:38:39.597Z,5.03
2023-04-20T05:41:07.927Z,4.93
2023-04-20T05:43:36.228Z,5.30
2023-04-20T05:46:04.922Z,4.50
2023-04-20T05:48:34.642Z,4.33
2023-04-20T05:51:02.993Z,4.63
2023-04-20T05:53:31.381Z,4.33
2023-04-20T05:55:59.695Z,3.93
2023-04-20T05:58:28.453Z,4.53
2023-04-20T06:00:56.866Z,3.90
2023-04-20T06:03:25.503Z,3.80
2023-04-20T06:05:55.447Z,2.87
2023-04-20T06:08:23.861Z,3.57
2023-04-20T06:10:56.012Z,3.63
2023-04-20T06:13:24.398Z,3.67
2023-04-20T06:15:52.923Z,3.57
2023-04-20T06:18:21.477Z,3.13
2023-04-20T06:20:49.842Z,3.37
2023-04-20T06:23:19.638Z,4.07
2023-04-20T06:25:47.987Z,4.50
2023-04-20T06:28:16.397Z,3.50
2023-04-20T06:30:44.762Z,4.53
2023-04-20T06:33:17.130Z,4.23
2023-04-20T06:35:45.506Z,4.07
2023-04-20T06:38:13.863Z,3.57
2023-04-20T06:40:43.569Z,4.37
2023-04-20T06:43:12.052Z,3.80
2023-04-20T06:45:40.410Z,4.03
2023-04-20T06:48:20.174Z,4.17
2023-04-20T06:50:57.516Z,3.43
2023-04-20T06:53:28.006Z,4.13
2023-04-20T06:55:58.499Z,4.03
2023-04-20T06:58:26.836Z,4.57
2023-04-20T07:00:55.193Z,3.90
2023-04-20T07:03:24.348Z,3.73
2023-04-20T07:05:52.852Z,3.90
2023-04-20T07:08:21.969Z,4.40
2023-04-20T07:10:50.298Z,3.80
2023-04-20T07:13:20.014Z,3.40
2023-04-20T07:15:48.343Z,3.57
2023-04-20T07:18:16.726Z,3.97
2023-04-20T07:20:45.248Z,4.40
2023-04-20T07:23:13.589Z,4.10
2023-04-20T07:25:42.019Z,3.67
2023-04-20T07:28:10.496Z,3.63
2023-04-20T07:30:40.271Z,3.57
2023-04-20T07:33:09.245Z,4.40
2023-04-20T07:35:37.979Z,3.97
2023-04-20T07:38:06.330Z,3.97
2023-04-20T07:40:34.648Z,4.03
2023-04-20T07:43:03.879Z,3.37
2023-04-20T07:45:32.206Z,3.37
2023-04-20T07:48:02.547Z,4.00
2023-04-20T07:50:30.913Z,3.87
2023-04-20T07:52:59.246Z,3.40
2023-04-20T07:55:27.861Z,3.40
2023-04-20T07:57:56.187Z,3.50
2023-04-20T08:00:25.612Z,3.10
2023-04-20T08:02:54.236Z,2.90
2023-04-20T08:05:25.110Z,3.37
2023-04-20T08:07:53.594Z,3.53
2023-04-20T08:10:22.153Z,4.00
2023-04-20T08:12:52.589Z,3.20
2023-04-20T08:15:21.211Z,3.23
2023-04-20T08:17:49.560Z,3.57
2023-04-20T08:20:18.359Z,3.00
2023-04-20T08:22:49.309Z,3.20
2023-04-20T08:25:18.204Z,3.53
2023-04-20T08:27:46.473Z,3.57
2023-04-20T08:30:15.417Z,3.63
2023-04-20T08:32:43.724Z,3.03
2023-04-20T08:35:12.189Z,3.30
2023-04-20T08:37:41.897Z,3.37
2023-04-20T08:40:13.144Z,3.40
2023-04-20T08:42:41.450Z,3.20
2023-04-20T08:45:10.355Z,2.93
2023-04-20T08:47:38.785Z,3.43
2023-04-20T08:50:09.760Z,2.80
2023-04-20T08:52:39.721Z,3.30
2023-04-20T08:55:09.368Z,2.80
2023-04-20T08:57:39.019Z,4.43
2023-04-20T09:00:13.820Z,4.60
2023-04-20T09:02:51.677Z,3.20
2023-04-20T09:05:28.262Z,3.47
2023-04-20T09:07:58.732Z,2.97
2023-04-20T09:10:29.014Z,3.40
2023-04-20T09:12:58.663Z,2.80
2023-04-20T09:15:28.661Z,2.90
2023-04-20T09:17:57.402Z,2.67
2023-04-20T09:20:31.684Z,2.90
2023-04-20T09:23:11.921Z,2.83
2023-04-20T09:25:41.133Z,2.70
2023-04-20T09:28:11.516Z,2.50
2023-04-20T09:30:41.490Z,2.93
2023-04-20T09:33:12.212Z,2.70
2023-04-20T09:35:42.253Z,2.50
2023-04-20T09:38:12.601Z,2.77
2023-04-20T09:40:40.970Z,2.57
2023-04-20T09:43:15.577Z,2.30
2023-04-20T09:45:44.946Z,2.70
2023-04-20T09:48:17.058Z,3.07
2023-04-20T09:50:49.783Z,3.07
2023-04-20T09:53:20.502Z,3.10
2023-04-20T09:55:50.478Z,2.83
2023-04-20T09:58:21.840Z,2.60
2023-04-20T10:00:51.048Z,2.60
2023-04-20T10:03:20.361Z,2.50
2023-04-20T10:05:49.428Z,2.40
2023-04-20T10:08:19.030Z,2.40
2023-04-20T10:10:49.693Z,2.30
2023-04-20T10:13:19.516Z,2.63
2023-04-20T10:15:49.813Z,2.57
2023-04-20T10:18:21.254Z,2.47
2023-04-20T10:20:49.904Z,2.70
2023-04-20T10:23:19.948Z,2.47
2023-04-20T10:25:58.626Z,2.37
2023-04-20T10:28:27.127Z,2.50
2023-04-20T10:30:56.877Z,2.50
2023-04-20T10:33:25.262Z,2.73
2023-04-20T10:35:57.794Z,2.30
2023-04-20T10:38:33.593Z,2.77
2023-04-20T10:41:08.289Z,2.23
2023-04-20T10:43:39.007Z,2.33
2023-04-20T10:46:19.804Z,2.43
2023-04-20T10:48:56.076Z,2.53
2023-04-20T10:51:25.081Z,3.23
2023-04-20T10:54:01.756Z,2.80
2023-04-20T10:56:38.068Z,2.40
2023-04-20T10:59:10.370Z,2.70
2023-04-20T11:01:41.016Z,2.23
2023-04-20T11:04:10.562Z,3.10
2023-04-20T11:06:40.718Z,2.80
2023-04-20T11:09:20.310Z,2.83
2023-04-20T11:11:59.441Z,2.97
2023-04-20T11:14:27.853Z,5.83
2023-04-20T11:16:57.698Z,4.43
2023-04-20T11:19:28.831Z,3.20
2023-04-20T11:21:57.656Z,2.90
2023-04-20T11:24:27.782Z,2.93
2023-04-20T11:26:57.996Z,2.83
2023-04-20T11:29:31.980Z,3.13
2023-04-20T11:32:04.071Z,2.90
2023-04-20T11:34:32.840Z,2.87
2023-04-20T11:37:06.556Z,3.03
2023-04-20T11:39:35.583Z,3.30
2023-04-20T11:42:04.172Z,2.50
2023-04-20T11:44:33.085Z,2.87
2023-04-20T11:47:03.988Z,2.50
2023-04-20T11:49:32.475Z,3.23
2023-04-20T11:52:01.243Z,2.90
2023-04-20T11:54:32.329Z,2.47
2023-04-20T11:57:00.839Z,2.50
2023-04-20T11:59:29.244Z,2.87
2023-04-20T12:01:57.657Z,2.50
2023-04-20T12:04:28.237Z,3.30
2023-04-20T12:06:58.364Z,2.40
2023-04-20T12:09:26.967Z,2.60
2023-04-20T12:11:55.395Z,1.90
2023-04-20T12:14:23.761Z,2.47
2023-04-20T12:16:52.181Z,2.60
2023-04-20T12:19:20.775Z,2.27
2023-04-20T12:21:50.570Z,2.20
2023-04-20T12:24:19.072Z,2.67
2023-04-20T12:26:47.719Z,2.80
2023-04-20T12:29:16.503Z,2.77
2023-04-20T12:31:45.261Z,2.50
2023-04-20T12:34:13.862Z,2.87
2023-04-20T12:36:42.269Z,2.80
2023-04-20T12:39:12.108Z,3.13
2023-04-20T12:41:42.273Z,2.80
2023-04-20T12:44:11.517Z,2.90
2023-04-20T12:46:40.021Z,2.87
2023-04-20T12:49:08.430Z,2.77
2023-04-20T12:51:36.887Z,2.93
2023-04-20T12:54:05.326Z,3.27
2023-04-20T12:56:35.121Z,3.33
2023-04-20T12:59:03.488Z,2.47
2023-04-20T13:01:31.885Z,2.60
2023-04-20T13:04:00.525Z,2.90
2023-04-20T13:06:29.076Z,2.50
2023-04-20T13:08:57.402Z,3.03
2023-04-20T13:11:27.181Z,2.87
2023-04-20T13:13:58.109Z,2.57
2023-04-20T13:16:26.903Z,2.83
2023-04-20T13:18:55.340Z,2.60
2023-04-20T13:21:23.730Z,2.57
2023-04-20T13:23:54.046Z,3.10
2023-04-20T13:26:23.257Z,2.70
2023-04-20T13:28:51.630Z,2.30
2023-04-20T13:31:21.477Z,2.87
2023-04-20T13:33:54.451Z,3.10
2023-04-20T13:36:23.045Z,2.77
2023-04-20T13:38:54.611Z,3.03
2023-04-20T13:41:23.998Z,2.83
2023-04-20T13:43:52.636Z,3.20
2023-04-20T13:46:22.585Z,2.77
2023-04-20T13:48:50.977Z,2.97
2023-04-20T13:51:19.384Z,2.60
2023-04-20T13:53:49.065Z,2.57
2023-04-20T13:56:17.902Z,3.00
2023-04-20T13:58:46.381Z,2.70
2023-04-20T14:01:16.585Z,2.70
2023-04-20T14:03:46.533Z,2.70
2023-04-20T14:06:15.188Z,2.50
2023-04-20T14:08:43.602Z,2.50
2023-04-20T14:11:11.998Z,2.30
2023-04-20T14:13:41.143Z,2.20
2023-04-20T14:16:11.002Z,2.47
2023-04-20T14:18:39.750Z,6.13
2023-04-20T14:21:09.535Z,4.20
2023-04-20T14:23:38.203Z,3.47
2023-04-20T14:26:07.164Z,3.27
2023-04-20T14:28:35.926Z,3.90
2023-04-20T14:31:04.728Z,3.37
2023-04-20T14:33:33.124Z,3.23
2023-04-20T14:36:15.550Z,3.10
2023-04-20T14:38:44.081Z,2.63
2023-04-20T14:41:12.419Z,3.07
2023-04-20T14:43:40.879Z,2.90
2023-04-20T14:46:09.347Z,2.90
2023-04-20T14:48:38.162Z,3.07
2023-04-20T14:51:06.864Z,2.60
2023-04-20T14:53:36.677Z,2.93
2023-04-20T14:56:05.487Z,2.83
2023-04-20T14:58:34.001Z,2.90
2023-04-20T15:01:02.479Z,3.00
2023-04-20T15:03:31.224Z,2.90
2023-04-20T15:06:03.606Z,2.57
2023-04-20T15:08:31.956Z,2.80
2023-04-20T15:11:02.098Z,2.90
2023-04-20T15:13:30.617Z,2.90
2023-04-20T15:15:59.404Z,2.80
2023-04-20T15:18:27.989Z,3.10
2023-04-20T15:20:56.469Z,3.00
2023-04-20T15:23:25.114Z,3.57
2023-04-20T15:25:54.083Z,2.80
2023-04-20T15:28:23.817Z,2.73
2023-04-20T15:30:52.268Z,3.23
2023-04-20T15:33:20.763Z,3.50
2023-04-20T15:35:50.449Z,3.23
2023-04-20T15:38:18.873Z,2.80
2023-04-20T15:40:47.598Z,2.60
2023-04-20T15:43:15.984Z,2.23
2023-04-20T15:45:45.774Z,3.50
2023-04-20T15:48:14.241Z,3.03
2023-04-20T15:50:42.716Z,2.87
2023-04-20T15:53:11.198Z,2.63
2023-04-20T15:55:40.113Z,3.00
2023-04-20T15:58:08.538Z,2.47
2023-04-20T16:00:37.158Z,2.90
2023-04-20T16:03:07.050Z,2.60
2023-04-20T16:05:35.790Z,7.70
2023-04-20T16:08:05.412Z,5.30
2023-04-20T16:10:34.188Z,3.13
2023-04-20T16:13:03.582Z,3.40
2023-04-20T16:15:32.153Z,3.10
2023-04-20T16:18:00.662Z,3.67
2023-04-20T16:20:30.532Z,4.23
2023-04-20T16:22:58.834Z,3.80
2023-04-20T16:25:28.497Z,3.60
2023-04-20T16:27:56.891Z,3.63
2023-04-20T16:30:25.340Z,2.87
2023-04-20T16:32:53.677Z,3.67
2023-04-20T16:35:22.675Z,3.53
2023-04-20T16:37:52.420Z,4.07
2023-04-20T16:40:21.869Z,3.67
2023-04-20T16:42:50.199Z,4.80
2023-04-20T16:45:18.983Z,3.83
2023-04-20T16:47:47.745Z,4.37
2023-04-20T16:50:19.659Z,3.63
2023-04-20T16:52:48.886Z,3.60
2023-04-20T16:55:18.978Z,3.83
2023-04-20T16:57:47.502Z,4.10
2023-04-20T17:00:17.669Z,5.40
2023-04-20T17:02:46.225Z,6.60
2023-04-20T17:05:14.944Z,5.27
2023-04-20T17:07:43.436Z,4.10
2023-04-20T17:10:12.404Z,4.37
2023-04-20T17:12:42.448Z,5.10
2023-04-20T17:15:12.256Z,4.50
2023-04-20T17:17:43.676Z,4.17
2023-04-20T17:20:12.950Z,4.30
2023-04-20T17:22:41.393Z,4.40
2023-04-20T17:25:11.014Z,4.23
2023-04-20T17:27:39.532Z,3.80
2023-04-20T17:30:11.945Z,3.83
2023-04-20T17:32:40.434Z,3.90
2023-04-20T17:35:09.778Z,3.77
2023-04-20T17:37:38.728Z,4.30
2023-04-20T17:40:09.273Z,3.87
2023-04-20T17:42:37.661Z,3.60
2023-04-20T17:45:09.357Z,3.80
2023-04-20T17:47:37.938Z,3.83
2023-04-20T17:50:08.259Z,4.27
2023-04-20T17:52:36.685Z,4.07
2023-04-20T17:55:06.112Z,3.60
2023-04-20T17:57:34.696Z,3.70
2023-04-20T18:00:05.045Z,4.37
2023-04-20T18:02:41.772Z,4.33
2023-04-20T18:05:11.187Z,4.27
2023-04-20T18:07:42.333Z,4.10
2023-04-20T18:10:13.577Z,3.77
2023-04-20T18:12:41.966Z,3.53
2023-04-20T18:15:11.713Z,4.50
2023-04-20T18:17:42.361Z,4.20
2023-04-20T18:20:11.916Z,3.63
2023-04-20T18:22:40.493Z,4.23
2023-04-20T18:25:10.006Z,4.57
2023-04-20T18:27:38.502Z,4.50
2023-04-20T18:30:09.168Z,4.43
2023-04-20T18:32:38.574Z,4.70
2023-04-20T18:35:11.004Z,4.23
2023-04-20T18:37:43.935Z,3.63
2023-04-20T18:40:15.480Z,4.23
2023-04-20T18:42:44.717Z,4.97
2023-04-20T18:45:13.382Z,4.43
2023-04-20T18:47:44.592Z,4.10
2023-04-20T18:50:15.314Z,4.57
2023-04-20T18:52:43.969Z,5.03
2023-04-20T18:55:12.434Z,4.87
2023-04-20T18:57:48.681Z,4.30
2023-04-20T19:00:17.870Z,4.50
2023-04-20T19:02:46.381Z,4.20
2023-04-20T19:05:16.355Z,4.43
2023-04-20T19:07:46.180Z,4.77
2023-04-20T19:10:14.556Z,4.13
2023-04-20T19:12:43.118Z,4.30
2023-04-20T19:15:12.482Z,4.97
2023-04-20T19:17:41.989Z,4.20
2023-04-20T19:20:11.680Z,4.27
2023-04-20T19:22:41.437Z,3.90
2023-04-20T19:25:10.190Z,3.80
2023-04-20T19:27:38.579Z,4.50
2023-04-20T19:30:08.851Z,4.87
2023-04-20T19:32:37.333Z,4.87
2023-04-20T19:35:08.836Z,4.23
2023-04-20T19:37:37.252Z,4.30
2023-04-20T19:40:08.598Z,4.10
2023-04-20T19:42:37.542Z,4.30
2023-04-20T19:45:07.364Z,4.63
2023-04-20T19:47:36.077Z,4.80
2023-04-20T19:50:04.719Z,5.77
2023-04-20T19:52:34.417Z,6.30
2023-04-20T19:55:03.941Z,5.17
2023-04-20T19:57:33.794Z,4.60
2023-04-20T20:00:02.337Z,5.10
2023-04-20T20:02:41.756Z,4.40
2023-04-20T20:05:12.450Z,4.33
2023-04-20T20:07:43.899Z,4.43
2023-04-20T20:10:12.367Z,4.70
2023-04-20T20:12:42.329Z,4.37
2023-04-20T20:15:10.843Z,5.17
2023-04-20T20:17:39.332Z,5.57
2023-04-20T20:20:12.245Z,5.27
2023-04-20T20:22:49.771Z,4.90
2023-04-20T20:25:20.001Z,5.23
2023-04-20T20:27:50.597Z,8.53
2023-04-20T20:30:19.480Z,8.20
2023-04-20T20:32:47.998Z,6.23
2023-04-20T20:35:16.562Z,5.40
2023-04-20T20:37:45.484Z,4.93
2023-04-20T20:40:14.840Z,5.10
2023-04-20T20:42:45.105Z,5.00
2023-04-20T20:45:18.270Z,4.60
2023-04-20T20:47:47.141Z,4.90
2023-04-20T20:50:18.078Z,4.97
2023-04-20T20:52:46.643Z,4.70
2023-04-20T20:55:15.361Z,5.23
2023-04-20T20:57:43.831Z,4.67
2023-04-20T21:00:14.676Z,4.17
2023-04-20T21:02:43.304Z,4.13
2023-04-20T21:05:12.370Z,4.40
2023-04-20T21:07:41.409Z,4.30
2023-04-20T21:10:11.796Z,4.53
2023-04-20T21:12:40.492Z,4.90
2023-04-20T21:15:10.419Z,4.30
2023-04-20T21:17:40.281Z,4.60
2023-04-20T21:20:10.627Z,4.10
2023-04-20T21:22:39.072Z,4.80
2023-04-20T21:25:08.896Z,4.73
2023-04-20T21:27:37.337Z,4.37
2023-04-20T21:30:10.240Z,4.70
2023-04-20T21:32:41.390Z,4.93
2023-04-20T21:35:11.044Z,4.17
2023-04-20T21:37:39.504Z,4.40
2023-04-20T21:40:10.178Z,4.27
2023-04-20T21:42:38.578Z,4.23
2023-04-20T21:45:08.288Z,4.63
2023-04-20T21:47:36.726Z,4.30
2023-04-20T21:50:07.585Z,4.93
2023-04-20T21:52:36.138Z,4.87
2023-04-20T21:55:04.594Z,4.87
2023-04-20T21:57:33.107Z,4.67
2023-04-20T22:00:01.479Z,5.77
2023-04-20T22:02:29.994Z,6.20
2023-04-20T22:04:58.394Z,6.37
2023-04-20T22:07:28.122Z,6.37
2023-04-20T22:09:56.487Z,6.50
2023-04-20T22:12:38.321Z,6.33
2023-04-20T22:15:13.513Z,5.77
2023-04-20T22:17:46.601Z,5.53
2023-04-20T22:20:21.662Z,4.93
2023-04-20T22:22:51.543Z,4.33
2023-04-20T22:25:19.973Z,4.93
2023-04-20T22:27:48.495Z,4.50
2023-04-20T22:30:16.901Z,4.57
2023-04-20T22:32:45.459Z,4.80
2023-04-20T22:35:13.831Z,4.50
2023-04-20T22:37:42.309Z,4.43
2023-04-20T22:40:14.154Z,3.90
2023-04-20T22:42:43.515Z,4.53
2023-04-20T22:45:12.860Z,4.83
2023-04-20T22:47:41.956Z,4.40
2023-04-20T22:50:12.224Z,4.77
2023-04-20T22:52:40.716Z,4.30
2023-04-20T22:55:13.336Z,4.53
2023-04-20T22:57:41.803Z,4.83
2023-04-20T23:00:13.585Z,4.80
2023-04-20T23:02:42.332Z,4.80
2023-04-20T23:05:11.645Z,4.37
2023-04-20T23:07:45.370Z,5.30
2023-04-20T23:10:16.344Z,4.63
2023-04-20T23:12:48.091Z,4.60
2023-04-20T23:15:16.430Z,4.37
2023-04-20T23:17:44.881Z,4.47
2023-04-20T23:20:15.149Z,4.33
2023-04-20T23:22:46.442Z,4.30
2023-04-20T23:25:16.123Z,4.07
2023-04-20T23:27:44.458Z,4.57
2023-04-20T23:30:14.061Z,4.30
2023-04-20T23:32:44.290Z,4.10
2023-04-20T23:35:13.004Z,4.50
2023-04-20T23:37:41.418Z,5.00
2023-04-20T23:40:11.981Z,4.13
2023-04-20T23:42:42.045Z,4.50
2023-04-20T23:45:11.929Z,5.10
2023-04-20T23:47:40.335Z,5.00
2023-04-20T23:50:10.357Z,4.97
2023-04-20T23:52:38.728Z,4.63
2023-04-20T23:55:08.107Z,5.50
2023-04-20T23:57:36.512Z,5.60
